Time;durP1;ratioP1;P1;durP2;ratioP2;P2;SDS_P1;SDS_P2;PMS_P1;PMS_P2;Temp;Humidity;BMP_temperature;BMP_pressure;BME280_temperature;BME280_humidity;BME280_pressure;Samples;Min_cycle;Max_cycle;Signal;HPM_P1;HPM_P2
2021/08/06 00:00:31;;;;;;;10.10;7.68;;;18.10;87.90;;;;;;5021453;28;20419;-83
2021/08/06 00:02:57;;;;;;;8.07;7.28;;;18.00;88.40;;;;;;5014175;28;20014;-82
2021/08/06 00:05:23;;;;;;;8.80;7.68;;;18.00;88.90;;;;;;5024722;28;20037;-82
2021/08/06 00:07:49;;;;;;;9.15;7.82;;;18.00;89.10;;;;;;4987473;28;20045;-82
2021/08/06 00:10:15;;;;;;;12.18;9.18;;;18.00;89.30;;;;;;5010904;28;20479;-84
2021/08/06 00:12:41;;;;;;;12.15;9.15;;;18.00;89.40;;;;;;5026593;28;20053;-86
2021/08/06 00:15:07;;;;;;;10.93;9.10;;;18.00;89.10;;;;;;5038147;28;20025;-83
2021/08/06 00:17:33;;;;;;;10.60;9.15;;;18.00;89.40;;;;;;5036373;28;20017;-85
2021/08/06 00:19:59;;;;;;;11.95;8.10;;;17.90;89.10;;;;;;5034880;28;20022;-84
2021/08/06 00:22:26;;;;;;;11.80;8.88;;;18.00;89.50;;;;;;5030058;28;20482;-83
2021/08/06 00:24:52;;;;;;;10.82;9.30;;;17.90;89.50;;;;;;5033961;28;20088;-85
2021/08/06 00:27:18;;;;;;;12.25;9.23;;;17.90;89.70;;;;;;5037764;28;20445;-85
2021/08/06 00:29:43;;;;;;;9.27;8.38;;;17.90;90.00;;;;;;5041677;28;20021;-84
2021/08/06 00:32:09;;;;;;;14.95;9.20;;;17.90;90.10;;;;;;5041858;28;20017;-83
2021/08/06 00:34:35;;;;;;;11.77;8.73;;;17.90;90.10;;;;;;5052091;28;20047;-85
2021/08/06 00:37:01;;;;;;;10.30;8.65;;;17.90;90.20;;;;;;5017762;28;20036;-83
2021/08/06 00:39:27;;;;;;;10.52;9.35;;;17.90;90.10;;;;;;5052270;28;20018;-86
2021/08/06 00:41:53;;;;;;;12.95;9.45;;;17.90;90.00;;;;;;5053224;28;20470;-84
2021/08/06 00:44:19;;;;;;;13.98;9.73;;;18.00;90.00;;;;;;5038919;28;20025;-83
2021/08/06 00:46:45;;;;;;;12.35;9.50;;;18.00;90.00;;;;;;5040562;28;20036;-82
2021/08/06 00:49:11;;;;;;;10.32;8.68;;;18.10;90.00;;;;;;5043861;28;20021;-84
2021/08/06 00:51:37;;;;;;;12.77;9.07;;;18.10;90.00;;;;;;5033420;28;20427;-84
2021/08/06 00:54:03;;;;;;;12.82;9.38;;;18.10;90.00;;;;;;5033262;28;20064;-83
2021/08/06 00:56:29;;;;;;;11.93;9.98;;;18.10;90.00;;;;;;5021237;28;20035;-84
2021/08/06 00:58:55;;;;;;;13.23;9.18;;;18.10;90.00;;;;;;5033500;28;20018;-83
2021/08/06 01:01:21;;;;;;;12.55;9.40;;;18.00;90.10;;;;;;5033170;28;20368;-83
2021/08/06 01:03:59;;;;;;;11.55;8.80;;;18.00;90.10;;;;;;5033200;28;20017;-84
2021/08/06 01:06:48;;;;;;;14.27;9.85;;;18.00;90.20;;;;;;5027147;28;20034;-84
2021/08/06 01:09:19;;;;;;;14.07;9.63;;;18.00;90.30;;;;;;5041129;28;20104;-84
2021/08/06 01:11:52;;;;;;;11.10;8.85;;;17.90;90.80;;;;;;5040897;28;20033;-84
2021/08/06 01:14:22;;;;;;;12.02;9.75;;;17.90;90.60;;;;;;5027083;28;20059;-84
2021/08/06 01:16:49;;;;;;;13.88;10.15;;;17.80;90.70;;;;;;5022764;28;20085;-83
2021/08/06 01:19:25;;;;;;;15.05;11.07;;;17.80;90.90;;;;;;5024433;28;20025;-82
2021/08/06 01:22:02;;;;;;;14.15;9.50;;;17.80;90.80;;;;;;5020303;28;20060;-82
2021/08/06 01:24:30;;;;;;;12.43;9.33;;;17.80;91.00;;;;;;5018897;28;20836;-82
2021/08/06 01:26:57;;;;;;;12.48;9.02;;;17.80;91.10;;;;;;5019453;28;20041;-82
2021/08/06 01:29:22;;;;;;;13.23;10.18;;;17.70;91.20;;;;;;5024141;28;20017;-81
2021/08/06 01:31:49;;;;;;;10.90;9.80;;;17.70;91.20;;;;;;5022718;28;20553;-83
2021/08/06 01:34:15;;;;;;;14.32;10.45;;;17.70;91.30;;;;;;5009189;28;20079;-82
2021/08/06 01:36:41;;;;;;;12.02;10.02;;;17.70;91.30;;;;;;5031162;28;20052;-83
2021/08/06 01:39:08;;;;;;;11.68;9.73;;;17.70;91.40;;;;;;5028509;28;20022;-82
2021/08/06 01:41:46;;;;;;;17.73;9.35;;;17.70;91.60;;;;;;5012360;28;20029;-83
2021/08/06 01:44:28;;;;;;;14.18;10.32;;;17.60;91.60;;;;;;5028229;28;20479;-82
2021/08/06 01:47:00;;;;;;;12.95;9.82;;;17.60;91.60;;;;;;5007527;28;20399;-82
2021/08/06 01:49:30;;;;;;;12.13;10.40;;;17.70;91.70;;;;;;5027081;28;20475;-82
2021/08/06 01:52:04;;;;;;;13.18;10.63;;;17.70;91.80;;;;;;5029566;28;20049;-83
2021/08/06 01:54:32;;;;;;;12.68;10.27;;;17.80;91.70;;;;;;5002723;28;20048;-83
2021/08/06 01:57:00;;;;;;;14.02;10.38;;;17.80;91.70;;;;;;5005865;28;20021;-81
2021/08/06 01:59:27;;;;;;;10.38;9.40;;;17.90;91.80;;;;;;5032066;28;20022;-83
2021/08/06 02:01:54;;;;;;;12.43;10.27;;;18.00;91.40;;;;;;5029023;28;20104;-83
2021/08/06 02:04:22;;;;;;;13.70;10.75;;;18.10;91.30;;;;;;5030281;28;20021;-84
2021/08/06 02:06:48;;;;;;;14.48;10.27;;;18.20;91.20;;;;;;5032382;28;20044;-84
2021/08/06 02:09:16;;;;;;;18.17;11.00;;;18.20;91.00;;;;;;5036146;28;20021;-83
2021/08/06 02:11:42;;;;;;;13.15;9.65;;;18.20;90.90;;;;;;5036348;28;20482;-84
2021/08/06 02:14:09;;;;;;;12.07;10.25;;;18.20;90.90;;;;;;5051317;28;20402;-83
2021/08/06 02:16:35;;;;;;;14.55;10.48;;;18.30;90.90;;;;;;5042888;28;20432;-83
2021/08/06 02:19:01;;;;;;;13.15;10.98;;;18.30;90.80;;;;;;5038027;28;20060;-83
2021/08/06 02:21:31;;;;;;;13.02;11.10;;;18.30;90.80;;;;;;5053918;28;20021;-83
2021/08/06 02:24:02;;;;;;;13.90;12.43;;;18.40;90.80;;;;;;5056037;28;20474;-83
2021/08/06 02:26:30;;;;;;;13.02;10.32;;;18.40;90.60;;;;;;5055861;28;20025;-82
2021/08/06 02:28:56;;;;;;;18.77;11.32;;;18.40;90.50;;;;;;5056575;28;20040;-84
2021/08/06 02:31:23;;;;;;;12.82;11.23;;;18.40;90.50;;;;;;5057291;28;20028;-84
2021/08/06 02:33:49;;;;;;;18.13;12.23;;;18.50;90.70;;;;;;5055985;28;20096;-83
2021/08/06 02:36:15;;;;;;;15.13;11.80;;;18.50;90.40;;;;;;5055965;28;20115;-85
2021/08/06 02:38:41;;;;;;;14.10;10.63;;;18.40;90.20;;;;;;5056167;28;20024;-84
2021/08/06 02:41:07;;;;;;;15.80;12.10;;;18.40;90.30;;;;;;5055831;28;20162;-84
2021/08/06 02:43:33;;;;;;;14.63;12.38;;;18.40;90.10;;;;;;5051936;28;20071;-85
2021/08/06 02:45:59;;;;;;;16.60;11.40;;;18.50;90.10;;;;;;5029164;28;20033;-84
2021/08/06 02:48:25;;;;;;;20.00;12.95;;;18.50;90.10;;;;;;5040228;28;20025;-83
2021/08/06 02:50:51;;;;;;;16.58;12.00;;;18.50;90.00;;;;;;5044521;28;20021;-85
2021/08/06 02:53:16;;;;;;;16.40;11.85;;;18.60;90.00;;;;;;5055721;28;20025;-86
2021/08/06 02:55:42;;;;;;;16.08;12.32;;;18.50;90.10;;;;;;5042505;28;20406;-85
2021/08/06 02:58:08;;;;;;;14.75;12.10;;;18.50;90.10;;;;;;5043651;28;20036;-85
2021/08/06 03:00:34;;;;;;;17.70;13.07;;;18.60;90.00;;;;;;5049477;28;20037;-84
2021/08/06 03:03:00;;;;;;;16.05;12.80;;;18.60;89.90;;;;;;5070966;28;20031;-84
2021/08/06 03:05:26;;;;;;;16.20;12.82;;;18.60;89.90;;;;;;5063992;28;20043;-87
2021/08/06 03:07:52;;;;;;;20.98;12.82;;;18.60;90.00;;;;;;5056307;28;20017;-86
2021/08/06 03:10:20;;;;;;;17.38;12.45;;;18.70;90.00;;;;;;5055940;28;20033;-85
2021/08/06 03:12:46;;;;;;;15.02;12.40;;;18.70;90.00;;;;;;5056078;28;20032;-86
2021/08/06 03:15:13;;;;;;;15.05;12.13;;;18.70;90.10;;;;;;5055812;28;20580;-86
2021/08/06 03:17:41;;;;;;;15.38;13.15;;;18.70;90.00;;;;;;5057738;28;20119;-86
2021/08/06 03:20:12;;;;;;;15.65;12.63;;;18.70;90.00;;;;;;5033221;28;20079;-85
2021/08/06 03:22:40;;;;;;;16.13;12.13;;;18.80;89.90;;;;;;5055419;28;20021;-85
2021/08/06 03:25:11;;;;;;;15.35;13.05;;;18.80;89.70;;;;;;5055876;28;20108;-86
2021/08/06 03:27:37;;;;;;;18.90;14.13;;;18.80;89.40;;;;;;5055431;28;20025;-84
2021/08/06 03:30:05;;;;;;;19.73;13.15;;;18.80;89.40;;;;;;5055751;28;20494;-86
2021/08/06 03:32:31;;;;;;;15.25;13.00;;;18.80;89.50;;;;;;5058255;28;20025;-84
2021/08/06 03:34:56;;;;;;;16.13;13.25;;;18.80;89.70;;;;;;5057812;28;20423;-84
2021/08/06 03:37:22;;;;;;;20.50;12.80;;;18.80;89.70;;;;;;5055671;28;20126;-84
2021/08/06 03:39:48;;;;;;;17.38;12.70;;;18.90;89.60;;;;;;5054793;28;20028;-84
2021/08/06 03:42:14;;;;;;;17.77;13.35;;;19.00;89.50;;;;;;5036902;28;20017;-85
2021/08/06 03:44:40;;;;;;;21.23;13.15;;;19.10;89.40;;;;;;5036538;28;20125;-84
2021/08/06 03:47:06;;;;;;;15.35;13.38;;;19.20;89.30;;;;;;5054497;28;20021;-83
2021/08/06 03:49:32;;;;;;;18.08;14.10;;;19.30;88.80;;;;;;5036746;28;20115;-85
2021/08/06 03:51:58;;;;;;;20.98;14.38;;;19.30;88.30;;;;;;5055967;28;20060;-86
2021/08/06 03:54:24;;;;;;;16.63;13.38;;;19.30;88.10;;;;;;5056708;28;20025;-86
2021/08/06 03:56:49;;;;;;;15.50;13.85;;;19.30;88.10;;;;;;5054790;28;20017;-86
2021/08/06 03:59:16;;;;;;;17.25;14.52;;;19.30;88.10;;;;;;5055044;28;20067;-86
2021/08/06 04:01:41;;;;;;;18.48;13.18;;;19.30;88.20;;;;;;5021875;28;20021;-85
2021/08/06 04:04:08;;;;;;;17.40;13.10;;;19.40;88.10;;;;;;5049340;28;20554;-84
2021/08/06 04:06:34;;;;;;;18.85;14.50;;;19.40;88.00;;;;;;5044543;28;20037;-84
2021/08/06 04:09:00;;;;;;;17.85;13.27;;;19.50;87.40;;;;;;5036743;28;20363;-85
2021/08/06 04:11:26;;;;;;;21.38;13.40;;;19.70;87.00;;;;;;5054505;28;20108;-83
2021/08/06 04:13:52;;;;;;;15.68;13.05;;;19.80;86.80;;;;;;5053649;28;20049;-84
2021/08/06 04:16:18;;;;;;;18.67;12.93;;;19.90;85.90;;;;;;5036603;28;20035;-85
2021/08/06 04:18:44;;;;;;;18.60;13.35;;;20.00;85.70;;;;;;5046910;28;20503;-84
2021/08/06 04:21:10;;;;;;;17.80;12.88;;;20.10;85.80;;;;;;5040516;28;20021;-84
2021/08/06 04:23:36;;;;;;;16.45;14.18;;;20.10;85.20;;;;;;5035392;28;20097;-84
2021/08/06 04:26:03;;;;;;;16.55;13.75;;;20.20;84.90;;;;;;5034592;28;20042;-84
2021/08/06 04:28:29;;;;;;;19.35;13.23;;;20.40;84.30;;;;;;5034160;28;20036;-82
2021/08/06 04:30:55;;;;;;;19.05;13.27;;;20.50;84.30;;;;;;5046906;28;20025;-83
2021/08/06 04:33:21;;;;;;;15.85;13.25;;;20.60;83.90;;;;;;5016539;28;20116;-82
2021/08/06 04:35:46;;;;;;;17.10;12.43;;;20.60;83.50;;;;;;5046826;28;20097;-82
2021/08/06 04:38:12;;;;;;;22.52;13.88;;;20.70;83.00;;;;;;5033428;28;20021;-83
2021/08/06 04:40:38;;;;;;;16.45;12.10;;;20.90;82.20;;;;;;5027948;28;20069;-83
2021/08/06 04:43:04;;;;;;;19.50;13.98;;;21.00;81.40;;;;;;5037550;28;20549;-84
2021/08/06 04:45:30;;;;;;;19.17;14.25;;;21.10;80.50;;;;;;5034395;28;20505;-84
2021/08/06 04:48:00;;;;;;;19.35;13.80;;;21.20;80.20;;;;;;5047207;28;20382;-84
2021/08/06 04:50:27;;;;;;;19.48;13.35;;;21.30;79.50;;;;;;5016787;28;20040;-83
2021/08/06 04:52:53;;;;;;;24.07;14.77;;;21.40;78.90;;;;;;5041847;28;20517;-83
2021/08/06 04:55:19;;;;;;;18.02;14.43;;;21.50;78.60;;;;;;5040309;28;20026;-86
2021/08/06 04:57:45;;;;;;;23.90;14.00;;;21.40;78.00;;;;;;5020501;28;20497;-85
2021/08/06 05:00:14;;;;;;;18.92;14.80;;;21.20;78.60;;;;;;5038095;28;20021;-85
2021/08/06 05:02:40;;;;;;;20.65;13.85;;;21.30;78.80;;;;;;5035484;28;20475;-85
2021/08/06 05:05:06;;;;;;;21.60;14.88;;;21.20;78.60;;;;;;5047550;28;20037;-85
2021/08/06 05:07:32;;;;;;;20.42;14.75;;;21.30;78.90;;;;;;5053864;28;20087;-85
2021/08/06 05:09:58;;;;;;;17.75;15.45;;;21.40;78.50;;;;;;5053465;28;20025;-84
2021/08/06 05:12:24;;;;;;;19.63;14.55;;;21.20;78.40;;;;;;5053759;28;20082;-85
2021/08/06 05:14:50;;;;;;;22.02;15.18;;;21.00;79.40;;;;;;5055057;28;20033;-85
2021/08/06 05:17:15;;;;;;;21.08;15.60;;;20.80;80.20;;;;;;5028398;28;20026;-82
2021/08/06 05:19:42;;;;;;;23.52;15.77;;;20.80;80.90;;;;;;5051285;28;20017;-84
2021/08/06 05:22:08;;;;;;;19.35;15.07;;;21.00;80.90;;;;;;5019815;28;20153;-83
2021/08/06 05:24:33;;;;;;;21.85;15.77;;;21.10;80.00;;;;;;5036802;28;20029;-84
2021/08/06 05:26:59;;;;;;;24.58;15.98;;;21.20;79.50;;;;;;5042438;28;20041;-85
2021/08/06 05:29:25;;;;;;;20.35;16.02;;;21.30;79.70;;;;;;5035759;28;20021;-84
2021/08/06 05:31:51;;;;;;;22.83;15.60;;;21.50;79.20;;;;;;5044127;28;20108;-85
2021/08/06 05:34:17;;;;;;;24.25;15.32;;;21.60;78.40;;;;;;5041502;28;20091;-83
2021/08/06 05:36:43;;;;;;;23.85;16.35;;;21.50;78.50;;;;;;5017255;28;20025;-85
2021/08/06 05:39:09;;;;;;;23.48;16.48;;;21.60;78.80;;;;;;5041243;28;20035;-85
2021/08/06 05:41:35;;;;;;;23.02;15.95;;;21.50;78.50;;;;;;5016506;28;20479;-84
2021/08/06 05:44:01;;;;;;;22.35;16.73;;;21.40;78.80;;;;;;5028726;28;20022;-85
2021/08/06 05:46:27;;;;;;;19.90;17.63;;;21.40;79.20;;;;;;5042486;28;20435;-84
2021/08/06 05:48:53;;;;;;;22.30;17.80;;;21.40;79.00;;;;;;5039417;28;20028;-82
2021/08/06 05:51:19;;;;;;;29.73;19.60;;;21.40;79.10;;;;;;5049409;28;20037;-84
2021/08/06 05:53:45;;;;;;;22.83;16.63;;;21.50;79.00;;;;;;5048010;28;20031;-84
2021/08/06 05:56:11;;;;;;;26.27;16.50;;;21.60;78.70;;;;;;5052223;28;20467;-84
2021/08/06 05:58:36;;;;;;;22.88;15.63;;;21.70;77.90;;;;;;5045251;28;20525;-84
2021/08/06 06:01:04;;;;;;;23.10;16.15;;;21.70;77.70;;;;;;5053697;28;20417;-83
2021/08/06 06:03:30;;;;;;;17.40;14.82;;;21.60;77.50;;;;;;5053082;28;20021;-84
2021/08/06 06:05:56;;;;;;;19.17;14.82;;;21.70;77.40;;;;;;5041626;28;20033;-85
2021/08/06 06:08:21;;;;;;;31.83;15.18;;;21.80;77.40;;;;;;5042550;28;20032;-84
2021/08/06 06:10:47;;;;;;;30.05;16.98;;;21.90;76.70;;;;;;5059734;28;20025;-86
2021/08/06 06:13:13;;;;;;;27.35;15.52;;;22.00;76.60;;;;;;5060089;28;20047;-85
2021/08/06 06:15:39;;;;;;;20.30;15.30;;;22.00;76.80;;;;;;5054217;28;20021;-85
2021/08/06 06:18:05;;;;;;;26.08;15.20;;;22.10;76.40;;;;;;5046628;28;20017;-84
2021/08/06 06:20:31;;;;;;;22.05;16.45;;;22.10;76.40;;;;;;5059251;28;20029;-83
2021/08/06 06:22:57;;;;;;;26.02;14.85;;;22.10;76.10;;;;;;5060776;28;20021;-85
2021/08/06 06:25:23;;;;;;;24.65;15.82;;;22.10;76.30;;;;;;5062915;28;20043;-84
2021/08/06 06:27:59;;;;;;;26.48;16.23;;;22.20;76.40;;;;;;5062756;28;20092;-83
2021/08/06 06:30:28;;;;;;;25.05;16.00;;;22.20;76.50;;;;;;5062899;28;20032;-84
2021/08/06 06:32:55;;;;;;;25.80;16.58;;;22.20;75.40;;;;;;5060317;28;20033;-84
2021/08/06 06:35:22;;;;;;;32.88;17.15;;;22.20;76.80;;;;;;5059151;28;20482;-83
2021/08/06 06:37:48;;;;;;;24.30;16.15;;;22.20;76.20;;;;;;5052461;28;20036;-83
2021/08/06 06:40:15;;;;;;;27.02;16.70;;;22.20;76.00;;;;;;5037709;28;20029;-82
2021/08/06 06:42:41;;;;;;;21.52;15.55;;;22.30;75.60;;;;;;5035010;28;20049;-87
2021/08/06 06:45:08;;;;;;;27.73;16.13;;;22.20;75.10;;;;;;5040826;28;20040;-85
2021/08/06 06:47:39;;;;;;;23.27;15.82;;;22.10;75.40;;;;;;5048314;28;20061;-87
2021/08/06 06:50:07;;;;;;;22.70;14.88;;;22.10;75.50;;;;;;5020955;28;20094;-82
2021/08/06 06:52:33;;;;;;;20.48;16.63;;;22.10;75.70;;;;;;5016192;28;20037;-86
2021/08/06 06:54:59;;;;;;;32.15;16.33;;;22.20;75.40;;;;;;5028877;28;20541;-82
2021/08/06 06:57:25;;;;;;;25.98;16.75;;;22.40;75.10;;;;;;5036952;28;20072;-86
2021/08/06 06:59:51;;;;;;;24.42;15.40;;;22.50;74.70;;;;;;5020821;28;20033;-82
2021/08/06 07:02:16;;;;;;;25.58;15.90;;;22.50;74.30;;;;;;5039059;28;20099;-86
2021/08/06 07:04:42;;;;;;;23.00;15.63;;;22.50;74.10;;;;;;5057688;28;20104;-88
2021/08/06 07:07:08;;;;;;;36.58;17.00;;;22.60;74.10;;;;;;5046243;28;20025;-87
2021/08/06 07:09:34;;;;;;;21.85;15.45;;;22.60;74.50;;;;;;5040422;28;20023;-88
2021/08/06 07:12:00;;;;;;;22.35;14.38;;;22.70;74.50;;;;;;5057099;28;20086;-86
2021/08/06 07:14:26;;;;;;;27.33;17.30;;;22.80;74.40;;;;;;5056756;28;20052;-88
2021/08/06 07:16:51;;;;;;;26.98;16.38;;;22.80;73.10;;;;;;5045730;28;20029;-86
2021/08/06 07:19:17;;;;;;;25.13;15.73;;;22.70;73.20;;;;;;5036960;28;20062;-86
2021/08/06 07:21:48;;;;;;;24.05;15.27;;;22.60;73.30;;;;;;5042122;28;20077;-88
2021/08/06 07:24:14;;;;;;;22.00;15.90;;;22.60;73.60;;;;;;5041690;28;20025;-89
2021/08/06 07:26:39;;;;;;;32.45;15.55;;;22.60;74.00;;;;;;5058053;28;20036;-86
2021/08/06 07:29:05;;;;;;;21.38;14.88;;;22.90;73.40;;;;;;5044001;28;20055;-86
2021/08/06 07:31:37;;;;;;;24.65;15.60;;;23.40;72.30;;;;;;5037358;28;20507;-88
2021/08/06 07:34:03;;;;;;;20.02;14.63;;;24.00;70.60;;;;;;5057430;28;20379;-86
2021/08/06 07:36:29;;;;;;;22.23;14.55;;;24.40;68.60;;;;;;5072076;28;20025;-87
2021/08/06 07:38:55;;;;;;;27.20;14.38;;;24.70;67.60;;;;;;5068250;28;20044;-87
2021/08/06 07:41:21;;;;;;;24.92;14.73;;;24.70;67.10;;;;;;5057810;28;20363;-86
2021/08/06 07:43:47;;;;;;;26.15;15.77;;;24.60;67.40;;;;;;5048356;28;20490;-89
2021/08/06 07:46:13;;;;;;;28.05;14.73;;;24.60;66.80;;;;;;5052733;28;20075;-89
2021/08/06 07:48:39;;;;;;;21.15;13.98;;;24.70;66.40;;;;;;5032109;28;20029;-86
2021/08/06 07:51:05;;;;;;;27.48;14.50;;;24.80;65.90;;;;;;5037567;28;20049;-88
2021/08/06 07:53:30;;;;;;;26.10;15.27;;;24.80;66.20;;;;;;5056379;28;20106;-87
2021/08/06 07:55:56;;;;;;;21.17;13.68;;;24.90;65.80;;;;;;5060165;28;20513;-85
2021/08/06 07:58:23;;;;;;;20.10;13.25;;;25.00;65.30;;;;;;5038597;28;20022;-86
2021/08/06 08:00:49;;;;;;;21.60;13.18;;;25.20;65.60;;;;;;5027009;28;20030;-85
2021/08/06 08:03:14;;;;;;;23.60;15.35;;;25.20;64.80;;;;;;5056575;28;20021;-90
2021/08/06 08:05:40;;;;;;;22.83;13.85;;;25.20;64.30;;;;;;5039261;28;20037;-87
2021/08/06 08:08:06;;;;;;;24.33;15.23;;;25.20;64.90;;;;;;5048352;28;20021;-87
2021/08/06 08:10:33;;;;;;;18.67;14.45;;;25.10;65.00;;;;;;5038537;28;20029;-87
2021/08/06 08:12:58;;;;;;;21.98;15.18;;;25.00;65.40;;;;;;5051395;28;20073;-87
2021/08/06 08:15:24;;;;;;;23.10;16.75;;;24.90;65.70;;;;;;5037994;28;20059;-87
2021/08/06 08:17:50;;;;;;;24.13;14.52;;;24.60;66.60;;;;;;5057205;28;20017;-88
2021/08/06 08:20:16;;;;;;;21.63;15.10;;;24.50;66.60;;;;;;5055949;28;20022;-87
2021/08/06 08:22:42;;;;;;;27.00;15.85;;;24.40;67.20;;;;;;5042296;28;20021;-87
2021/08/06 08:25:09;;;;;;;17.20;14.55;;;24.40;67.40;;;;;;5056502;28;20037;-87
2021/08/06 08:27:35;;;;;;;22.00;14.20;;;24.30;66.70;;;;;;5056442;28;20021;-87
2021/08/06 08:30:03;;;;;;;19.50;15.27;;;24.00;67.60;;;;;;5051657;28;20025;-87
2021/08/06 08:32:29;;;;;;;31.60;16.35;;;24.00;68.30;;;;;;5041436;28;20026;-88
2021/08/06 08:34:55;;;;;;;23.35;14.85;;;24.10;67.80;;;;;;5044902;28;20028;-88
2021/08/06 08:38:11;;;;;;;22.27;16.15;;;24.20;68.00;;;;;;5057986;28;20110;-88
2021/08/06 08:40:38;;;;;;;22.73;17.02;;;24.20;68.80;;;;;;5025132;28;20079;-89
2021/08/06 08:43:05;;;;;;;25.42;17.48;;;24.00;68.00;;;;;;5052865;28;20028;-89
2021/08/06 08:45:31;;;;;;;20.67;17.17;;;24.10;68.60;;;;;;5038438;28;20498;-87
2021/08/06 08:47:58;;;;;;;26.48;16.90;;;24.30;68.60;;;;;;5055029;28;20032;-87
2021/08/06 08:50:26;;;;;;;24.52;17.20;;;24.60;67.60;;;;;;5042953;28;20052;-90
2021/08/06 08:52:53;;;;;;;27.63;17.50;;;24.80;66.10;;;;;;5037743;28;20395;-88
2021/08/06 08:55:19;;;;;;;23.83;17.50;;;25.20;65.30;;;;;;5035841;28;20028;-86
2021/08/06 08:57:45;;;;;;;28.40;16.75;;;25.70;64.30;;;;;;5048411;28;20037;-87
2021/08/06 09:00:13;;;;;;;17.92;14.13;;;26.10;62.60;;;;;;5055707;28;20032;-89
2021/08/06 09:02:43;;;;;;;20.88;13.85;;;26.40;62.50;;;;;;5055083;28;20056;-88
2021/08/06 09:05:19;;;;;;;25.73;16.50;;;26.60;60.60;;;;;;5037523;28;20029;-87
2021/08/06 09:07:45;;;;;;;15.52;13.27;;;27.10;60.10;;;;;;5048859;28;20108;-86
2021/08/06 09:10:18;;;;;;;21.92;13.55;;;27.50;59.00;;;;;;5048094;28;20028;-88
2021/08/06 09:12:48;;;;;;;20.90;11.70;;;27.70;57.90;;;;;;5048515;28;20029;-85
2021/08/06 09:15:15;;;;;;;15.63;11.75;;;27.70;57.00;;;;;;5057711;28;20037;-87
2021/08/06 09:17:41;;;;;;;14.48;12.05;;;27.60;57.50;;;;;;5040523;28;20021;-88
2021/08/06 09:20:09;;;;;;;18.70;11.60;;;27.30;57.20;;;;;;5049959;28;20029;-88
2021/08/06 09:22:38;;;;;;;18.90;11.68;;;26.90;58.00;;;;;;5032801;28;20036;-88
2021/08/06 09:25:16;;;;;;;13.48;10.18;;;26.20;59.20;;;;;;5036456;28;20360;-87
2021/08/06 09:27:47;;;;;;;15.52;10.90;;;25.80;60.20;;;;;;5035620;28;20116;-86
2021/08/06 09:30:32;;;;;;;14.55;10.65;;;25.60;60.70;;;;;;5045445;28;20533;-89
2021/08/06 09:32:58;;;;;;;15.82;11.30;;;25.30;61.00;;;;;;5044392;28;20044;-87
2021/08/06 09:35:28;;;;;;;15.93;10.27;;;25.00;62.00;;;;;;5040637;28;20043;-88
2021/08/06 09:37:55;;;;;;;16.73;11.70;;;24.70;62.70;;;;;;5038039;28;20025;-87
2021/08/06 09:40:26;;;;;;;17.77;10.68;;;24.60;63.60;;;;;;5056138;28;20174;-87
2021/08/06 09:42:56;;;;;;;18.40;10.13;;;24.80;63.40;;;;;;5057302;28;20478;-87
2021/08/06 09:45:25;;;;;;;17.80;9.43;;;24.90;63.00;;;;;;5056874;28;20100;-87
2021/08/06 09:47:58;;;;;;;24.13;10.10;;;25.00;63.30;;;;;;5056504;28;20056;-89
2021/08/06 09:50:37;;;;;;;15.63;10.93;;;25.00;63.90;;;;;;5046439;28;20052;-86
2021/08/06 09:53:05;;;;;;;18.23;10.70;;;24.90;63.60;;;;;;5028399;28;20034;-88
2021/08/06 09:55:39;;;;;;;19.45;11.50;;;24.70;64.90;;;;;;5054421;28;20020;-88
2021/08/06 09:58:14;;;;;;;14.45;10.52;;;24.50;65.60;;;;;;5070296;28;20017;-90
2021/08/06 10:00:43;;;;;;;16.08;10.40;;;24.10;67.10;;;;;;5026965;28;20028;-87
2021/08/06 10:03:27;;;;;;;14.10;11.07;;;23.80;68.90;;;;;;5056692;28;20025;-88
2021/08/06 10:06:12;;;;;;;16.60;11.43;;;23.70;69.70;;;;;;5042290;28;20435;-87
2021/08/06 10:08:39;;;;;;;17.17;11.30;;;23.50;70.90;;;;;;4993072;28;20034;-87
2021/08/06 10:11:05;;;;;;;17.20;12.30;;;23.30;72.70;;;;;;4985513;28;20468;-87
2021/08/06 10:13:31;;;;;;;18.88;13.50;;;23.20;73.80;;;;;;4983656;28;20137;-89
2021/08/06 10:15:58;;;;;;;13.93;11.88;;;23.00;74.40;;;;;;4973749;28;20039;-89
2021/08/06 10:18:23;;;;;;;14.02;12.50;;;22.80;75.50;;;;;;4958384;28;20135;-89
2021/08/06 10:20:50;;;;;;;21.45;14.60;;;22.20;78.10;;;;;;4977499;28;20381;-87
2021/08/06 10:23:16;;;;;;;23.40;15.93;;;22.00;80.10;;;;;;4957591;28;20105;-87
2021/08/06 10:25:43;;;;;;;18.42;13.55;;;21.80;81.30;;;;;;4974697;28;20055;-88
2021/08/06 10:28:09;;;;;;;16.35;13.43;;;21.80;81.70;;;;;;4974066;28;20035;-88
2021/08/06 10:30:38;;;;;;;17.15;15.45;;;21.60;82.40;;;;;;4978154;28;20117;-91
2021/08/06 10:33:28;;;;;;;21.10;14.50;;;21.50;84.40;;;;;;4978195;28;20389;-89
2021/08/06 10:36:01;;;;;;;20.88;17.10;;;21.50;84.80;;;;;;4977969;28;20030;-89
2021/08/06 10:38:40;;;;;;;20.02;16.95;;;21.50;86.50;;;;;;4979770;28;20042;-90
2021/08/06 10:41:20;;;;;;;21.17;18.55;;;21.50;87.90;;;;;;5040032;28;20052;-91
2021/08/06 10:44:02;;;;;;;21.45;17.58;;;21.60;88.10;;;;;;5039514;28;20022;-91
2021/08/06 10:47:02;;;;;;;23.02;18.25;;;21.60;88.00;;;;;;5040990;28;20490;-90
2021/08/06 10:49:30;;;;;;;27.52;21.33;;;21.50;88.50;;;;;;5040220;28;20410;-90
2021/08/06 10:52:16;;;;;;;25.73;18.90;;;21.40;90.10;;;;;;5024569;28;20028;-90
2021/08/06 10:54:43;;;;;;;21.77;19.48;;;21.40;89.50;;;;;;5038874;28;20030;-89
2021/08/06 10:57:20;;;;;;;25.40;20.80;;;21.40;90.00;;;;;;5039341;28;20029;-90
2021/08/06 10:59:47;;;;;;;23.15;19.02;;;21.30;90.00;;;;;;5038696;28;20028;-91
2021/08/06 11:02:34;;;;;;;23.15;20.63;;;21.20;90.50;;;;;;5037100;28;20033;-90
2021/08/06 11:05:01;;;;;;;29.00;22.88;;;21.10;90.80;;;;;;5030711;28;20021;-90
2021/08/06 11:07:34;;;;;;;29.38;23.95;;;21.10;91.90;;;;;;5035852;28;20022;-90
2021/08/06 11:10:00;;;;;;;23.38;20.80;;;21.20;92.10;;;;;;5012181;28;20029;-91
2021/08/06 11:12:36;;;;;;;25.20;21.45;;;21.10;91.70;;;;;;5026272;28;20030;-90
2021/08/06 11:15:07;;;;;;;30.92;23.27;;;21.00;91.60;;;;;;5040801;28;20146;-90
2021/08/06 11:17:41;;;;;;;33.20;24.85;;;21.00;91.90;;;;;;5026894;28;20026;-91
2021/08/06 11:20:26;;;;;;;37.75;23.13;;;21.10;92.30;;;;;;5030998;28;20030;-90
2021/08/06 11:22:52;;;;;;;25.77;22.25;;;21.20;92.40;;;;;;5043637;28;20171;-91
2021/08/06 11:25:18;;;;;;;28.60;23.15;;;21.20;92.70;;;;;;5012133;28;20054;-89
2021/08/06 11:27:51;;;;;;;41.33;25.33;;;21.20;92.80;;;;;;5033089;28;20511;-89
2021/08/06 11:30:24;;;;;;;21.42;19.40;;;21.30;92.90;;;;;;5019649;28;20101;-89
2021/08/06 11:32:58;;;;;;;20.90;18.73;;;21.20;91.90;;;;;;5035556;28;20026;-90
2021/08/06 11:35:28;;;;;;;27.65;22.00;;;21.00;92.20;;;;;;5003087;28;20022;-90
2021/08/06 11:37:55;;;;;;;25.88;22.15;;;;;;;;;;5018921;28;20048;-90
2021/08/06 11:40:24;;;;;;;31.38;21.83;;;20.80;92.50;;;;;;5007751;28;20029;-90
2021/08/06 11:42:51;;;;;;;24.33;21.38;;;20.70;92.60;;;;;;5038468;28;20029;-90
2021/08/06 11:45:23;;;;;;;24.13;21.65;;;20.70;93.00;;;;;;5043236;28;20077;-86
2021/08/06 11:47:52;;;;;;;29.83;21.35;;;20.70;92.70;;;;;;5008752;28;20116;-89
2021/08/06 11:50:42;;;;;;;27.17;21.55;;;20.60;92.90;;;;;;5002872;28;20094;-90
2021/08/06 11:53:25;;;;;;;20.77;18.58;;;20.70;92.90;;;;;;5014863;28;20091;-90
2021/08/06 11:55:57;;;;;;;28.17;19.15;;;20.60;92.50;;;;;;5001837;28;20564;-90
2021/08/06 11:58:36;;;;;;;32.03;24.50;;;20.60;92.30;;;;;;5017353;28;20033;-89
2021/08/06 12:01:04;;;;;;;29.25;22.75;;;20.70;92.40;;;;;;5033953;28;20025;-87
2021/08/06 12:03:40;;;;;;;26.10;23.27;;;20.60;92.60;;;;;;5041614;28;20020;-88
2021/08/06 12:06:06;;;;;;;29.58;24.90;;;20.60;93.10;;;;;;5011336;28;20123;-86
2021/08/06 12:08:33;;;;;;;33.42;25.63;;;20.30;93.90;;;;;;5027277;28;20030;-89
2021/08/06 12:11:05;;;;;;;28.95;25.95;;;20.10;94.40;;;;;;5032665;28;20022;-89
2021/08/06 12:13:33;;;;;;;30.25;26.90;;;20.00;95.30;;;;;;5059858;28;20057;-89
2021/08/06 12:16:13;;;;;;;29.08;23.30;;;20.10;95.70;;;;;;5059214;28;20010;-88
2021/08/06 12:18:56;;;;;;;27.48;22.70;;;19.90;95.00;;;;;;5050239;28;20029;-89
2021/08/06 12:21:27;;;;;;;23.73;21.15;;;19.70;95.10;;;;;;5039194;28;20026;-89
2021/08/06 12:23:59;;;;;;;23.98;19.60;;;19.50;95.20;;;;;;5019834;28;20030;-88
2021/08/06 12:26:34;;;;;;;25.15;22.17;;;19.50;95.60;;;;;;5010991;28;20119;-90
2021/08/06 12:29:10;;;;;;;24.50;21.67;;;19.50;95.80;;;;;;5058098;28;20482;-91
2021/08/06 12:32:09;;;;;;;25.40;19.38;;;19.60;95.80;;;;;;5051181;28;20049;-88
2021/08/06 12:34:47;;;;;;;27.00;23.90;;;19.90;95.20;;;;;;5035437;28;20047;-90